sensor_id;sensor_type;location;lat;lon;timestamp;P1;durP1;ratioP1;P2;durP2;ratioP2
74259;SDS011;62630;55.874;37.516;2022-12-16T00:00:31;15.50;;;8.07;;
74259;SDS011;62630;55.874;37.516;2022-12-16T00:02:57;15.10;;;8.27;;
74259;SDS011;62630;55.874;37.516;2022-12-16T00:05:25;13.43;;;7.80;;
74259;SDS011;62630;55.874;37.516;2022-12-16T00:07:52;12.48;;;7.45;;
74259;SDS011;62630;55.874;37.516;2022-12-16T00:10:17;15.05;;;7.45;;
74259;SDS011;62630;55.874;37.516;2022-12-16T00:12:43;14.43;;;7.35;;
74259;SDS011;62630;55.874;37.516;2022-12-16T00:15:08;14.77;;;6.97;;
74259;SDS011;62630;55.874;37.516;2022-12-16T00:17:34;13.35;;;6.60;;
74259;SDS011;62630;55.874;37.516;2022-12-16T00:20:00;13.45;;;7.85;;
74259;SDS011;62630;55.874;37.516;2022-12-16T00:22:27;15.00;;;7.20;;
74259;SDS011;62630;55.874;37.516;2022-12-16T00:24:53;15.75;;;7.22;;
74259;SDS011;62630;55.874;37.516;2022-12-16T00:27:18;12.27;;;7.28;;
74259;SDS011;62630;55.874;37.516;2022-12-16T00:29:44;14.93;;;7.70;;
74259;SDS011;62630;55.874;37.516;2022-12-16T00:32:11;14.20;;;7.65;;
74259;SDS011;62630;55.874;37.516;2022-12-16T00:34:36;11.65;;;7.13;;
74259;SDS011;62630;55.874;37.516;2022-12-16T00:37:02;11.32;;;6.95;;
74259;SDS011;62630;55.874;37.516;2022-12-16T00:39:28;13.35;;;6.72;;
74259;SDS011;62630;55.874;37.516;2022-12-16T00:41:54;15.27;;;7.57;;
74259;SDS011;62630;55.874;37.516;2022-12-16T00:44:19;15.27;;;7.25;;
74259;SDS011;62630;55.874;37.516;2022-12-16T00:46:45;12.68;;;7.07;;
74259;SDS011;62630;55.874;37.516;2022-12-16T00:49:10;14.20;;;7.50;;
74259;SDS011;62630;55.874;37.516;2022-12-16T00:51:36;13.00;;;6.70;;
74259;SDS011;62630;55.874;37.516;2022-12-16T00:54:01;14.95;;;7.13;;
74259;SDS011;62630;55.874;37.516;2022-12-16T00:56:27;13.95;;;6.38;;
74259;SDS011;62630;55.874;37.516;2022-12-16T00:58:53;16.63;;;7.88;;
74259;SDS011;62630;55.874;37.516;2022-12-16T01:01:18;10.73;;;6.75;;
74259;SDS011;62630;55.874;37.516;2022-12-16T01:03:44;11.15;;;6.60;;
74259;SDS011;62630;55.874;37.516;2022-12-16T01:06:10;10.60;;;6.15;;
74259;SDS011;62630;55.874;37.516;2022-12-16T01:08:38;13.20;;;6.35;;
74259;SDS011;62630;55.874;37.516;2022-12-16T01:11:04;10.15;;;6.50;;
74259;SDS011;62630;55.874;37.516;2022-12-16T01:13:30;13.25;;;7.20;;
74259;SDS011;62630;55.874;37.516;2022-12-16T01:15:58;11.90;;;6.22;;
74259;SDS011;62630;55.874;37.516;2022-12-16T01:18:25;12.68;;;6.32;;
74259;SDS011;62630;55.874;37.516;2022-12-16T01:20:50;12.38;;;6.82;;
74259;SDS011;62630;55.874;37.516;2022-12-16T01:23:16;10.35;;;6.03;;
74259;SDS011;62630;55.874;37.516;2022-12-16T01:25:41;10.38;;;5.80;;
74259;SDS011;62630;55.874;37.516;2022-12-16T01:28:07;10.85;;;5.97;;
74259;SDS011;62630;55.874;37.516;2022-12-16T01:30:33;10.38;;;6.13;;
74259;SDS011;62630;55.874;37.516;2022-12-16T01:32:58;12.27;;;6.78;;
74259;SDS011;62630;55.874;37.516;2022-12-16T01:35:24;12.50;;;6.35;;
74259;SDS011;62630;55.874;37.516;2022-12-16T01:37:49;11.73;;;6.25;;
74259;SDS011;62630;55.874;37.516;2022-12-16T01:40:15;12.25;;;6.10;;
74259;SDS011;62630;55.874;37.516;2022-12-16T01:42:43;10.60;;;5.80;;
74259;SDS011;62630;55.874;37.516;2022-12-16T01:47:58;12.13;;;6.70;;
74259;SDS011;62630;55.874;37.516;2022-12-16T01:50:39;9.82;;;5.60;;
74259;SDS011;62630;55.874;37.516;2022-12-16T01:53:05;11.07;;;6.03;;
74259;SDS011;62630;55.874;37.516;2022-12-16T01:55:33;10.90;;;5.85;;
74259;SDS011;62630;55.874;37.516;2022-12-16T02:00:33;10.43;;;5.50;;
74259;SDS011;62630;55.874;37.516;2022-12-16T02:03:00;9.70;;;5.45;;
74259;SDS011;62630;55.874;37.516;2022-12-16T02:05:26;9.82;;;5.95;;
74259;SDS011;62630;55.874;37.516;2022-12-16T02:27:37;10.15;;;5.40;;
74259;SDS011;62630;55.874;37.516;2022-12-16T02:33:34;9.85;;;4.88;;
74259;SDS011;62630;55.874;37.516;2022-12-16T02:39:21;8.07;;;4.80;;
74259;SDS011;62630;55.874;37.516;2022-12-16T02:42:01;8.50;;;5.00;;
74259;SDS011;62630;55.874;37.516;2022-12-16T02:44:39;7.93;;;5.32;;
74259;SDS011;62630;55.874;37.516;2022-12-16T02:47:16;9.60;;;5.25;;
74259;SDS011;62630;55.874;37.516;2022-12-16T02:49:46;8.57;;;4.97;;
74259;SDS011;62630;55.874;37.516;2022-12-16T02:52:13;7.78;;;4.97;;
74259;SDS011;62630;55.874;37.516;2022-12-16T02:54:42;8.82;;;5.30;;
74259;SDS011;62630;55.874;37.516;2022-12-16T03:00:04;8.98;;;5.15;;
74259;SDS011;62630;55.874;37.516;2022-12-16T03:05:41;10.07;;;6.00;;
74259;SDS011;62630;55.874;37.516;2022-12-16T03:08:13;10.00;;;5.80;;
74259;SDS011;62630;55.874;37.516;2022-12-16T03:10:54;8.23;;;5.38;;
74259;SDS011;62630;55.874;37.516;2022-12-16T03:13:23;8.73;;;4.80;;
74259;SDS011;62630;55.874;37.516;2022-12-16T03:15:52;8.43;;;5.05;;
74259;SDS011;62630;55.874;37.516;2022-12-16T03:18:22;7.90;;;5.13;;
74259;SDS011;62630;55.874;37.516;2022-12-16T03:23:30;9.82;;;5.60;;
74259;SDS011;62630;55.874;37.516;2022-12-16T03:26:07;8.27;;;5.35;;
74259;SDS011;62630;55.874;37.516;2022-12-16T03:28:40;9.48;;;5.13;;
74259;SDS011;62630;55.874;37.516;2022-12-16T03:31:18;8.75;;;5.63;;
74259;SDS011;62630;55.874;37.516;2022-12-16T03:36:53;9.20;;;5.63;;
74259;SDS011;62630;55.874;37.516;2022-12-16T03:39:24;9.10;;;5.32;;
74259;SDS011;62630;55.874;37.516;2022-12-16T03:41:51;10.48;;;5.70;;
74259;SDS011;62630;55.874;37.516;2022-12-16T03:44:19;8.35;;;5.38;;
74259;SDS011;62630;55.874;37.516;2022-12-16T03:46:46;8.23;;;4.68;;
74259;SDS011;62630;55.874;37.516;2022-12-16T03:49:12;9.32;;;6.18;;
74259;SDS011;62630;55.874;37.516;2022-12-16T03:51:39;11.00;;;5.93;;
74259;SDS011;62630;55.874;37.516;2022-12-16T03:54:04;9.18;;;5.82;;
74259;SDS011;62630;55.874;37.516;2022-12-16T03:56:30;8.05;;;4.93;;
74259;SDS011;62630;55.874;37.516;2022-12-16T03:58:56;10.30;;;4.93;;
74259;SDS011;62630;55.874;37.516;2022-12-16T04:01:22;9.50;;;5.85;;
74259;SDS011;62630;55.874;37.516;2022-12-16T04:03:48;8.25;;;4.85;;
74259;SDS011;62630;55.874;37.516;2022-12-16T04:06:14;11.63;;;6.28;;
74259;SDS011;62630;55.874;37.516;2022-12-16T04:08:43;8.40;;;5.10;;
74259;SDS011;62630;55.874;37.516;2022-12-16T04:11:11;7.20;;;4.70;;
74259;SDS011;62630;55.874;37.516;2022-12-16T04:13:55;9.82;;;4.93;;
74259;SDS011;62630;55.874;37.516;2022-12-16T04:16:40;8.25;;;5.50;;
74259;SDS011;62630;55.874;37.516;2022-12-16T04:19:26;8.30;;;5.07;;
74259;SDS011;62630;55.874;37.516;2022-12-16T04:22:21;6.70;;;4.55;;
74259;SDS011;62630;55.874;37.516;2022-12-16T04:25:11;9.07;;;4.80;;
74259;SDS011;62630;55.874;37.516;2022-12-16T04:27:40;13.05;;;5.07;;
74259;SDS011;62630;55.874;37.516;2022-12-16T04:30:11;7.72;;;4.80;;
74259;SDS011;62630;55.874;37.516;2022-12-16T04:32:48;9.80;;;5.50;;
74259;SDS011;62630;55.874;37.516;2022-12-16T04:35:36;7.40;;;4.30;;
74259;SDS011;62630;55.874;37.516;2022-12-16T04:38:21;9.48;;;5.47;;
74259;SDS011;62630;55.874;37.516;2022-12-16T04:44:01;8.43;;;5.30;;
74259;SDS011;62630;55.874;37.516;2022-12-16T04:46:47;8.23;;;5.28;;
74259;SDS011;62630;55.874;37.516;2022-12-16T04:49:31;8.45;;;4.93;;
74259;SDS011;62630;55.874;37.516;2022-12-16T04:52:16;9.55;;;5.30;;
74259;SDS011;62630;55.874;37.516;2022-12-16T04:55:00;7.45;;;5.53;;
74259;SDS011;62630;55.874;37.516;2022-12-16T04:57:51;8.82;;;5.63;;
74259;SDS011;62630;55.874;37.516;2022-12-16T05:00:37;8.27;;;5.95;;
74259;SDS011;62630;55.874;37.516;2022-12-16T05:03:21;7.47;;;4.45;;
74259;SDS011;62630;55.874;37.516;2022-12-16T05:06:06;7.97;;;4.43;;
74259;SDS011;62630;55.874;37.516;2022-12-16T05:08:50;7.40;;;4.57;;
74259;SDS011;62630;55.874;37.516;2022-12-16T05:11:34;7.03;;;4.63;;
74259;SDS011;62630;55.874;37.516;2022-12-16T05:14:18;13.88;;;5.65;;
74259;SDS011;62630;55.874;37.516;2022-12-16T05:17:01;9.43;;;4.70;;
74259;SDS011;62630;55.874;37.516;2022-12-16T05:19:45;5.70;;;4.10;;
74259;SDS011;62630;55.874;37.516;2022-12-16T05:22:29;6.85;;;3.75;;
74259;SDS011;62630;55.874;37.516;2022-12-16T05:25:13;7.47;;;4.88;;
74259;SDS011;62630;55.874;37.516;2022-12-16T05:27:58;6.70;;;3.80;;
74259;SDS011;62630;55.874;37.516;2022-12-16T05:30:42;7.65;;;4.45;;
74259;SDS011;62630;55.874;37.516;2022-12-16T05:33:26;6.68;;;4.35;;
74259;SDS011;62630;55.874;37.516;2022-12-16T05:36:09;6.38;;;4.10;;
74259;SDS011;62630;55.874;37.516;2022-12-16T05:38:53;6.43;;;4.10;;
74259;SDS011;62630;55.874;37.516;2022-12-16T05:41:43;8.80;;;4.75;;
74259;SDS011;62630;55.874;37.516;2022-12-16T05:44:27;5.80;;;4.35;;
74259;SDS011;62630;55.874;37.516;2022-12-16T05:47:11;7.82;;;4.22;;
74259;SDS011;62630;55.874;37.516;2022-12-16T05:49:55;7.47;;;3.97;;
74259;SDS011;62630;55.874;37.516;2022-12-16T05:52:39;6.93;;;4.05;;
74259;SDS011;62630;55.874;37.516;2022-12-16T05:55:24;7.75;;;4.65;;
74259;SDS011;62630;55.874;37.516;2022-12-16T05:58:08;5.40;;;3.42;;
74259;SDS011;62630;55.874;37.516;2022-12-16T06:00:52;7.18;;;4.28;;
74259;SDS011;62630;55.874;37.516;2022-12-16T06:03:36;6.88;;;4.20;;
74259;SDS011;62630;55.874;37.516;2022-12-16T06:06:20;6.93;;;4.18;;
74259;SDS011;62630;55.874;37.516;2022-12-16T06:09:04;7.43;;;5.03;;
74259;SDS011;62630;55.874;37.516;2022-12-16T06:11:48;7.47;;;4.93;;
74259;SDS011;62630;55.874;37.516;2022-12-16T06:14:33;6.45;;;3.88;;
74259;SDS011;62630;55.874;37.516;2022-12-16T06:17:17;5.75;;;3.80;;
74259;SDS011;62630;55.874;37.516;2022-12-16T06:20:02;6.03;;;3.72;;
74259;SDS011;62630;55.874;37.516;2022-12-16T06:22:53;6.35;;;4.32;;
74259;SDS011;62630;55.874;37.516;2022-12-16T06:25:38;6.68;;;4.60;;
74259;SDS011;62630;55.874;37.516;2022-12-16T06:28:23;7.00;;;4.93;;
74259;SDS011;62630;55.874;37.516;2022-12-16T06:31:07;8.10;;;4.10;;
74259;SDS011;62630;55.874;37.516;2022-12-16T06:33:53;5.93;;;3.83;;
74259;SDS011;62630;55.874;37.516;2022-12-16T06:36:37;6.22;;;3.92;;
74259;SDS011;62630;55.874;37.516;2022-12-16T06:39:21;7.03;;;4.10;;
74259;SDS011;62630;55.874;37.516;2022-12-16T06:42:05;7.78;;;4.32;;
74259;SDS011;62630;55.874;37.516;2022-12-16T06:44:49;6.57;;;3.67;;
74259;SDS011;62630;55.874;37.516;2022-12-16T06:47:33;6.18;;;3.78;;
74259;SDS011;62630;55.874;37.516;2022-12-16T06:50:18;6.60;;;4.38;;
74259;SDS011;62630;55.874;37.516;2022-12-16T06:53:02;6.93;;;4.60;;
74259;SDS011;62630;55.874;37.516;2022-12-16T06:55:46;7.47;;;4.22;;
74259;SDS011;62630;55.874;37.516;2022-12-16T06:58:30;8.07;;;4.95;;
74259;SDS011;62630;55.874;37.516;2022-12-16T07:01:14;5.78;;;4.22;;
74259;SDS011;62630;55.874;37.516;2022-12-16T07:06:45;6.68;;;3.97;;
74259;SDS011;62630;55.874;37.516;2022-12-16T07:09:28;8.25;;;4.65;;
74259;SDS011;62630;55.874;37.516;2022-12-16T07:12:12;7.35;;;4.47;;
74259;SDS011;62630;55.874;37.516;2022-12-16T07:14:56;7.07;;;4.20;;
74259;SDS011;62630;55.874;37.516;2022-12-16T07:17:40;6.65;;;4.22;;
74259;SDS011;62630;55.874;37.516;2022-12-16T07:23:10;8.15;;;4.57;;
74259;SDS011;62630;55.874;37.516;2022-12-16T07:25:54;7.10;;;4.05;;
74259;SDS011;62630;55.874;37.516;2022-12-16T07:28:38;8.90;;;4.90;;
74259;SDS011;62630;55.874;37.516;2022-12-16T07:31:22;6.50;;;4.68;;
74259;SDS011;62630;55.874;37.516;2022-12-16T07:34:06;8.45;;;4.80;;
74259;SDS011;62630;55.874;37.516;2022-12-16T07:36:50;6.85;;;4.63;;
74259;SDS011;62630;55.874;37.516;2022-12-16T07:39:34;8.10;;;4.55;;
74259;SDS011;62630;55.874;37.516;2022-12-16T07:42:18;10.65;;;5.15;;
74259;SDS011;62630;55.874;37.516;2022-12-16T07:45:03;6.78;;;4.40;;
74259;SDS011;62630;55.874;37.516;2022-12-16T07:47:48;10.30;;;4.78;;
74259;SDS011;62630;55.874;37.516;2022-12-16T07:50:35;7.85;;;4.72;;
74259;SDS011;62630;55.874;37.516;2022-12-16T07:53:22;8.40;;;4.50;;
74259;SDS011;62630;55.874;37.516;2022-12-16T07:56:07;7.45;;;4.93;;
74259;SDS011;62630;55.874;37.516;2022-12-16T07:58:52;8.00;;;5.82;;
74259;SDS011;62630;55.874;37.516;2022-12-16T08:01:36;8.80;;;5.18;;
74259;SDS011;62630;55.874;37.516;2022-12-16T08:04:20;8.15;;;5.05;;
74259;SDS011;62630;55.874;37.516;2022-12-16T08:07:04;9.07;;;4.75;;
74259;SDS011;62630;55.874;37.516;2022-12-16T08:09:48;11.77;;;5.93;;
74259;SDS011;62630;55.874;37.516;2022-12-16T08:12:32;9.15;;;5.00;;
74259;SDS011;62630;55.874;37.516;2022-12-16T08:15:16;6.22;;;4.32;;
74259;SDS011;62630;55.874;37.516;2022-12-16T08:18:00;7.63;;;4.78;;
74259;SDS011;62630;55.874;37.516;2022-12-16T08:20:44;7.97;;;5.05;;
74259;SDS011;62630;55.874;37.516;2022-12-16T08:23:28;9.13;;;5.32;;
74259;SDS011;62630;55.874;37.516;2022-12-16T08:26:13;5.35;;;3.92;;
74259;SDS011;62630;55.874;37.516;2022-12-16T08:28:56;6.40;;;4.55;;
74259;SDS011;62630;55.874;37.516;2022-12-16T08:31:40;7.43;;;3.92;;
74259;SDS011;62630;55.874;37.516;2022-12-16T08:34:24;10.18;;;5.10;;
74259;SDS011;62630;55.874;37.516;2022-12-16T08:37:08;6.85;;;4.32;;
74259;SDS011;62630;55.874;37.516;2022-12-16T08:39:52;8.68;;;4.70;;
74259;SDS011;62630;55.874;37.516;2022-12-16T08:42:36;8.85;;;4.85;;
74259;SDS011;62630;55.874;37.516;2022-12-16T08:45:20;9.50;;;5.15;;
74259;SDS011;62630;55.874;37.516;2022-12-16T08:48:04;10.10;;;5.18;;
74259;SDS011;62630;55.874;37.516;2022-12-16T08:50:49;6.90;;;4.15;;
74259;SDS011;62630;55.874;37.516;2022-12-16T08:53:33;6.35;;;4.43;;
74259;SDS011;62630;55.874;37.516;2022-12-16T08:56:17;8.52;;;4.97;;
74259;SDS011;62630;55.874;37.516;2022-12-16T08:59:01;8.38;;;5.65;;
74259;SDS011;62630;55.874;37.516;2022-12-16T09:01:46;7.63;;;4.57;;
74259;SDS011;62630;55.874;37.516;2022-12-16T09:04:30;7.30;;;4.45;;
74259;SDS011;62630;55.874;37.516;2022-12-16T09:07:14;8.57;;;5.13;;
74259;SDS011;62630;55.874;37.516;2022-12-16T09:09:58;7.18;;;3.75;;
74259;SDS011;62630;55.874;37.516;2022-12-16T09:12:41;7.18;;;4.40;;
74259;SDS011;62630;55.874;37.516;2022-12-16T09:15:25;8.57;;;4.63;;
74259;SDS011;62630;55.874;37.516;2022-12-16T09:18:10;5.78;;;4.05;;
74259;SDS011;62630;55.874;37.516;2022-12-16T09:20:53;7.70;;;5.10;;
74259;SDS011;62630;55.874;37.516;2022-12-16T09:23:37;7.55;;;4.25;;
74259;SDS011;62630;55.874;37.516;2022-12-16T09:26:21;9.00;;;5.22;;
74259;SDS011;62630;55.874;37.516;2022-12-16T09:29:05;7.55;;;4.72;;
74259;SDS011;62630;55.874;37.516;2022-12-16T09:31:49;9.50;;;5.00;;
74259;SDS011;62630;55.874;37.516;2022-12-16T09:34:34;8.02;;;5.22;;
74259;SDS011;62630;55.874;37.516;2022-12-16T09:37:18;7.43;;;3.92;;
74259;SDS011;62630;55.874;37.516;2022-12-16T09:40:03;7.43;;;4.55;;
74259;SDS011;62630;55.874;37.516;2022-12-16T09:46:49;8.25;;;4.45;;
74259;SDS011;62630;55.874;37.516;2022-12-16T09:49:48;7.57;;;4.72;;
74259;SDS011;62630;55.874;37.516;2022-12-16T09:52:45;7.13;;;4.35;;
74259;SDS011;62630;55.874;37.516;2022-12-16T09:55:41;7.60;;;4.45;;
74259;SDS011;62630;55.874;37.516;2022-12-16T09:58:32;6.70;;;4.05;;
74259;SDS011;62630;55.874;37.516;2022-12-16T10:01:27;7.25;;;5.05;;
74259;SDS011;62630;55.874;37.516;2022-12-16T10:04:15;7.60;;;4.72;;
74259;SDS011;62630;55.874;37.516;2022-12-16T10:06:59;10.13;;;4.40;;
74259;SDS011;62630;55.874;37.516;2022-12-16T10:09:49;9.45;;;4.45;;
74259;SDS011;62630;55.874;37.516;2022-12-16T10:12:58;6.28;;;4.05;;
74259;SDS011;62630;55.874;37.516;2022-12-16T10:25:31;6.78;;;3.78;;
74259;SDS011;62630;55.874;37.516;2022-12-16T10:28:35;6.15;;;3.80;;
74259;SDS011;62630;55.874;37.516;2022-12-16T10:31:24;10.20;;;4.90;;
74259;SDS011;62630;55.874;37.516;2022-12-16T10:34:10;10.38;;;4.38;;
74259;SDS011;62630;55.874;37.516;2022-12-16T10:36:57;6.35;;;4.00;;
74259;SDS011;62630;55.874;37.516;2022-12-16T10:39:43;5.65;;;3.92;;
74259;SDS011;62630;55.874;37.516;2022-12-16T10:42:36;7.38;;;4.05;;
74259;SDS011;62630;55.874;37.516;2022-12-16T10:45:29;6.65;;;4.13;;
74259;SDS011;62630;55.874;37.516;2022-12-16T10:48:26;6.78;;;4.28;;
74259;SDS011;62630;55.874;37.516;2022-12-16T10:51:13;7.90;;;4.38;;
74259;SDS011;62630;55.874;37.516;2022-12-16T10:54:21;8.27;;;4.70;;
74259;SDS011;62630;55.874;37.516;2022-12-16T11:00:07;6.18;;;4.70;;
74259;SDS011;62630;55.874;37.516;2022-12-16T11:02:53;8.52;;;4.85;;
74259;SDS011;62630;55.874;37.516;2022-12-16T11:05:37;8.25;;;5.05;;
74259;SDS011;62630;55.874;37.516;2022-12-16T11:11:12;8.18;;;4.95;;
74259;SDS011;62630;55.874;37.516;2022-12-16T11:20:16;7.90;;;5.22;;
74259;SDS011;62630;55.874;37.516;2022-12-16T11:23:27;6.68;;;3.65;;
74259;SDS011;62630;55.874;37.516;2022-12-16T11:26:12;8.52;;;4.78;;
74259;SDS011;62630;55.874;37.516;2022-12-16T11:31:53;8.20;;;5.28;;
74259;SDS011;62630;55.874;37.516;2022-12-16T11:34:53;9.38;;;5.00;;
74259;SDS011;62630;55.874;37.516;2022-12-16T11:37:40;7.20;;;4.63;;
74259;SDS011;62630;55.874;37.516;2022-12-16T11:40:26;9.00;;;4.88;;
74259;SDS011;62630;55.874;37.516;2022-12-16T11:43:13;7.43;;;4.93;;
74259;SDS011;62630;55.874;37.516;2022-12-16T11:45:59;8.43;;;4.72;;
74259;SDS011;62630;55.874;37.516;2022-12-16T11:48:47;7.32;;;3.97;;
74259;SDS011;62630;55.874;37.516;2022-12-16T11:51:35;7.68;;;4.97;;
74259;SDS011;62630;55.874;37.516;2022-12-16T11:54:29;9.13;;;5.03;;
74259;SDS011;62630;55.874;37.516;2022-12-16T11:57:20;8.30;;;5.32;;
74259;SDS011;62630;55.874;37.516;2022-12-16T12:00:11;10.02;;;5.47;;
74259;SDS011;62630;55.874;37.516;2022-12-16T12:03:02;10.45;;;5.38;;
74259;SDS011;62630;55.874;37.516;2022-12-16T12:09:10;7.00;;;5.00;;
74259;SDS011;62630;55.874;37.516;2022-12-16T12:15:26;9.27;;;5.45;;
74259;SDS011;62630;55.874;37.516;2022-12-16T12:21:49;5.97;;;4.60;;
74259;SDS011;62630;55.874;37.516;2022-12-16T12:27:29;8.02;;;4.70;;
74259;SDS011;62630;55.874;37.516;2022-12-16T12:30:18;8.18;;;5.20;;
74259;SDS011;62630;55.874;37.516;2022-12-16T12:36:14;7.35;;;4.82;;
74259;SDS011;62630;55.874;37.516;2022-12-16T12:45:22;8.85;;;4.40;;
74259;SDS011;62630;55.874;37.516;2022-12-16T12:57:08;8.90;;;4.95;;
74259;SDS011;62630;55.874;37.516;2022-12-16T13:00:00;9.00;;;4.28;;
74259;SDS011;62630;55.874;37.516;2022-12-16T13:02:52;6.28;;;4.18;;
74259;SDS011;62630;55.874;37.516;2022-12-16T13:05:39;5.50;;;3.45;;
74259;SDS011;62630;55.874;37.516;2022-12-16T13:11:33;7.43;;;4.20;;
74259;SDS011;62630;55.874;37.516;2022-12-16T13:17:18;6.25;;;4.28;;
74259;SDS011;62630;55.874;37.516;2022-12-16T13:20:04;8.07;;;4.50;;
74259;SDS011;62630;55.874;37.516;2022-12-16T13:23:22;6.90;;;4.47;;
74259;SDS011;62630;55.874;37.516;2022-12-16T13:26:11;6.88;;;4.80;;
74259;SDS011;62630;55.874;37.516;2022-12-16T13:37:53;6.75;;;4.07;;
74259;SDS011;62630;55.874;37.516;2022-12-16T13:40:53;10.90;;;5.95;;
74259;SDS011;62630;55.874;37.516;2022-12-16T13:43:44;11.02;;;5.75;;
74259;SDS011;62630;55.874;37.516;2022-12-16T13:46:40;7.47;;;4.50;;
74259;SDS011;62630;55.874;37.516;2022-12-16T13:52:18;8.50;;;5.65;;
74259;SDS011;62630;55.874;37.516;2022-12-16T13:55:37;10.85;;;6.18;;
74259;SDS011;62630;55.874;37.516;2022-12-16T13:58:39;12.80;;;7.22;;
74259;SDS011;62630;55.874;37.516;2022-12-16T14:01:30;10.75;;;5.68;;
74259;SDS011;62630;55.874;37.516;2022-12-16T14:04:43;9.88;;;4.60;;
74259;SDS011;62630;55.874;37.516;2022-12-16T14:07:31;26.60;;;6.47;;
74259;SDS011;62630;55.874;37.516;2022-12-16T14:10:34;8.68;;;4.10;;
74259;SDS011;62630;55.874;37.516;2022-12-16T14:13:30;7.15;;;4.28;;
74259;SDS011;62630;55.874;37.516;2022-12-16T14:22:23;7.57;;;4.70;;
74259;SDS011;62630;55.874;37.516;2022-12-16T14:25:14;8.85;;;5.20;;
74259;SDS011;62630;55.874;37.516;2022-12-16T14:28:04;9.98;;;5.20;;
74259;SDS011;62630;55.874;37.516;2022-12-16T14:31:16;8.63;;;5.38;;
74259;SDS011;62630;55.874;37.516;2022-12-16T14:34:10;9.57;;;4.80;;
74259;SDS011;62630;55.874;37.516;2022-12-16T14:37:05;7.03;;;4.60;;
74259;SDS011;62630;55.874;37.516;2022-12-16T14:43:12;7.40;;;5.18;;
74259;SDS011;62630;55.874;37.516;2022-12-16T14:45:58;10.27;;;5.80;;
74259;SDS011;62630;55.874;37.516;2022-12-16T14:48:44;9.38;;;4.28;;
74259;SDS011;62630;55.874;37.516;2022-12-16T14:51:34;12.07;;;5.90;;
74259;SDS011;62630;55.874;37.516;2022-12-16T14:54:34;10.80;;;5.38;;
74259;SDS011;62630;55.874;37.516;2022-12-16T14:57:24;7.10;;;4.43;;
74259;SDS011;62630;55.874;37.516;2022-12-16T15:00:12;8.45;;;5.00;;
74259;SDS011;62630;55.874;37.516;2022-12-16T15:06:30;7.90;;;4.78;;
74259;SDS011;62630;55.874;37.516;2022-12-16T15:09:39;9.18;;;5.03;;
74259;SDS011;62630;55.874;37.516;2022-12-16T15:12:26;9.73;;;5.18;;
74259;SDS011;62630;55.874;37.516;2022-12-16T15:15:30;11.02;;;4.95;;
74259;SDS011;62630;55.874;37.516;2022-12-16T15:18:17;7.97;;;4.50;;
74259;SDS011;62630;55.874;37.516;2022-12-16T15:21:05;7.43;;;4.70;;
74259;SDS011;62630;55.874;37.516;2022-12-16T15:23:50;8.07;;;4.72;;
74259;SDS011;62630;55.874;37.516;2022-12-16T15:26:35;7.75;;;4.70;;
74259;SDS011;62630;55.874;37.516;2022-12-16T15:29:34;8.70;;;5.03;;
74259;SDS011;62630;55.874;37.516;2022-12-16T15:38:09;9.75;;;5.78;;
74259;SDS011;62630;55.874;37.516;2022-12-16T15:44:05;8.48;;;4.75;;
74259;SDS011;62630;55.874;37.516;2022-12-16T15:50:23;8.43;;;4.93;;
74259;SDS011;62630;55.874;37.516;2022-12-16T15:53:14;8.05;;;4.80;;
74259;SDS011;62630;55.874;37.516;2022-12-16T15:56:59;9.13;;;5.38;;
74259;SDS011;62630;55.874;37.516;2022-12-16T15:59:32;9.75;;;5.22;;
74259;SDS011;62630;55.874;37.516;2022-12-16T16:02:22;9.18;;;5.30;;
74259;SDS011;62630;55.874;37.516;2022-12-16T16:08:03;9.95;;;6.00;;
74259;SDS011;62630;55.874;37.516;2022-12-16T16:10:47;9.70;;;5.88;;
74259;SDS011;62630;55.874;37.516;2022-12-16T16:13:32;10.45;;;5.35;;
74259;SDS011;62630;55.874;37.516;2022-12-16T16:16:16;9.27;;;5.82;;
74259;SDS011;62630;55.874;37.516;2022-12-16T16:19:00;8.70;;;5.28;;
74259;SDS011;62630;55.874;37.516;2022-12-16T16:21:44;10.10;;;5.57;;
74259;SDS011;62630;55.874;37.516;2022-12-16T16:24:28;10.52;;;6.47;;
74259;SDS011;62630;55.874;37.516;2022-12-16T16:27:13;10.25;;;5.93;;
74259;SDS011;62630;55.874;37.516;2022-12-16T16:29:58;10.68;;;5.93;;
74259;SDS011;62630;55.874;37.516;2022-12-16T16:32:43;10.45;;;6.45;;
74259;SDS011;62630;55.874;37.516;2022-12-16T16:35:28;11.80;;;6.32;;
74259;SDS011;62630;55.874;37.516;2022-12-16T16:40:57;10.80;;;6.40;;
74259;SDS011;62630;55.874;37.516;2022-12-16T16:43:41;9.27;;;6.40;;
74259;SDS011;62630;55.874;37.516;2022-12-16T16:46:29;11.00;;;6.82;;
74259;SDS011;62630;55.874;37.516;2022-12-16T16:49:21;10.43;;;5.97;;
74259;SDS011;62630;55.874;37.516;2022-12-16T16:52:18;11.43;;;6.15;;
74259;SDS011;62630;55.874;37.516;2022-12-16T16:55:03;11.02;;;6.47;;
74259;SDS011;62630;55.874;37.516;2022-12-16T16:57:49;11.23;;;5.80;;
74259;SDS011;62630;55.874;37.516;2022-12-16T17:00:33;10.52;;;5.57;;
74259;SDS011;62630;55.874;37.516;2022-12-16T17:03:18;11.43;;;6.85;;
74259;SDS011;62630;55.874;37.516;2022-12-16T17:06:02;11.80;;;6.70;;
74259;SDS011;62630;55.874;37.516;2022-12-16T17:08:46;11.88;;;7.53;;
74259;SDS011;62630;55.874;37.516;2022-12-16T17:11:30;12.98;;;7.55;;
74259;SDS011;62630;55.874;37.516;2022-12-16T17:14:17;9.75;;;6.47;;
74259;SDS011;62630;55.874;37.516;2022-12-16T17:17:02;10.27;;;6.93;;
74259;SDS011;62630;55.874;37.516;2022-12-16T17:19:47;10.32;;;6.25;;
74259;SDS011;62630;55.874;37.516;2022-12-16T17:22:31;9.70;;;6.03;;
74259;SDS011;62630;55.874;37.516;2022-12-16T17:25:15;10.52;;;6.95;;
74259;SDS011;62630;55.874;37.516;2022-12-16T17:28:00;11.45;;;7.35;;
74259;SDS011;62630;55.874;37.516;2022-12-16T17:30:45;11.60;;;6.82;;
74259;SDS011;62630;55.874;37.516;2022-12-16T17:33:29;11.55;;;6.95;;
74259;SDS011;62630;55.874;37.516;2022-12-16T17:36:13;14.23;;;8.32;;
74259;SDS011;62630;55.874;37.516;2022-12-16T17:38:58;14.38;;;8.05;;
74259;SDS011;62630;55.874;37.516;2022-12-16T17:41:43;13.35;;;8.50;;
74259;SDS011;62630;55.874;37.516;2022-12-16T17:44:28;13.93;;;7.72;;
74259;SDS011;62630;55.874;37.516;2022-12-16T17:47:12;12.95;;;8.00;;
74259;SDS011;62630;55.874;37.516;2022-12-16T17:49:56;15.02;;;7.90;;
74259;SDS011;62630;55.874;37.516;2022-12-16T17:52:40;14.30;;;8.05;;
74259;SDS011;62630;55.874;37.516;2022-12-16T17:55:24;11.77;;;7.70;;
74259;SDS011;62630;55.874;37.516;2022-12-16T17:58:09;14.30;;;8.13;;
74259;SDS011;62630;55.874;37.516;2022-12-16T18:00:58;15.27;;;8.68;;
74259;SDS011;62630;55.874;37.516;2022-12-16T18:03:43;14.75;;;8.35;;
74259;SDS011;62630;55.874;37.516;2022-12-16T18:06:27;15.75;;;8.27;;
74259;SDS011;62630;55.874;37.516;2022-12-16T18:09:11;15.23;;;8.82;;
74259;SDS011;62630;55.874;37.516;2022-12-16T18:11:55;14.05;;;8.25;;
74259;SDS011;62630;55.874;37.516;2022-12-16T18:14:39;13.27;;;8.65;;
74259;SDS011;62630;55.874;37.516;2022-12-16T18:17:23;12.38;;;8.15;;
74259;SDS011;62630;55.874;37.516;2022-12-16T18:20:07;15.95;;;8.63;;
74259;SDS011;62630;55.874;37.516;2022-12-16T18:22:52;14.55;;;8.52;;
74259;SDS011;62630;55.874;37.516;2022-12-16T18:25:36;14.07;;;8.55;;
74259;SDS011;62630;55.874;37.516;2022-12-16T18:28:20;15.60;;;9.32;;
74259;SDS011;62630;55.874;37.516;2022-12-16T18:31:04;14.77;;;9.00;;
74259;SDS011;62630;55.874;37.516;2022-12-16T18:33:48;17.35;;;10.23;;
74259;SDS011;62630;55.874;37.516;2022-12-16T18:36:32;14.93;;;8.38;;
74259;SDS011;62630;55.874;37.516;2022-12-16T18:39:16;16.92;;;9.27;;
74259;SDS011;62630;55.874;37.516;2022-12-16T18:42:00;15.48;;;9.70;;